sensor_id;sensor_type;location;lat;lon;timestamp;pressure;altitude;pressure_sealevel;temperature;humidity
7614;BME280;3848;42.016;23.098;2023-04-19T00:02:00;96631.66;;;11.99;100.00
7614;BME280;3848;42.016;23.098;2023-04-19T00:04:27;96630.88;;;11.97;100.00
7614;BME280;3848;42.016;23.098;2023-04-19T00:06:54;96635.97;;;11.97;100.00
7614;BME280;3848;42.016;23.098;2023-04-19T00:09:22;96631.00;;;11.91;100.00
7614;BME280;3848;42.016;23.098;2023-04-19T00:11:49;96627.00;;;11.79;100.00
7614;BME280;3848;42.016;23.098;2023-04-19T00:14:17;96625.47;;;11.71;100.00
7614;BME280;3848;42.016;23.098;2023-04-19T00:16:44;96614.53;;;11.66;100.00
7614;BME280;3848;42.016;23.098;2023-04-19T00:19:11;96627.94;;;11.74;100.00
7614;BME280;3848;42.016;23.098;2023-04-19T00:21:37;96623.16;;;11.58;100.00
7614;BME280;3848;42.016;23.098;2023-04-19T00:24:05;96621.56;;;11.54;100.00
7614;BME280;3848;42.016;23.098;2023-04-19T00:26:31;96623.22;;;11.55;100.00
7614;BME280;3848;42.016;23.098;2023-04-19T00:28:58;96613.88;;;11.56;100.00
7614;BME280;3848;42.016;23.098;2023-04-19T00:31:26;96618.16;;;11.54;100.00
7614;BME280;3848;42.016;23.098;2023-04-19T00:33:53;96608.91;;;11.51;100.00
7614;BME280;3848;42.016;23.098;2023-04-19T00:36:20;96621.44;;;11.59;100.00
7614;BME280;3848;42.016;23.098;2023-04-19T00:38:46;96618.84;;;11.62;100.00
7614;BME280;3848;42.016;23.098;2023-04-19T00:41:14;96610.34;;;11.63;100.00
7614;BME280;3848;42.016;23.098;2023-04-19T00:43:41;96617.06;;;11.66;100.00
7614;BME280;3848;42.016;23.098;2023-04-19T00:46:08;96624.69;;;11.67;100.00
7614;BME280;3848;42.016;23.098;2023-04-19T00:48:36;96622.16;;;11.67;100.00
7614;BME280;3848;42.016;23.098;2023-04-19T00:51:03;96622.19;;;11.64;100.00
7614;BME280;3848;42.016;23.098;2023-04-19T00:53:30;96617.16;;;11.61;100.00
7614;BME280;3848;42.016;23.098;2023-04-19T00:55:58;96614.56;;;11.64;100.00
7614;BME280;3848;42.016;23.098;2023-04-19T00:58:29;96617.97;;;11.63;100.00
7614;BME280;3848;42.016;23.098;2023-04-19T01:00:57;96616.22;;;11.65;100.00
7614;BME280;3848;42.016;23.098;2023-04-19T01:03:24;96617.94;;;11.66;100.00
7614;BME280;3848;42.016;23.098;2023-04-19T01:05:52;96628.00;;;11.71;100.00
7614;BME280;3848;42.016;23.098;2023-04-19T01:08:19;96620.38;;;11.71;100.00
7614;BME280;3848;42.016;23.098;2023-04-19T01:10:46;96611.91;;;11.70;100.00
7614;BME280;3848;42.016;23.098;2023-04-19T01:13:13;96604.41;;;11.63;100.00
7614;BME280;3848;42.016;23.098;2023-04-19T01:15:39;96617.84;;;11.71;100.00
7614;BME280;3848;42.016;23.098;2023-04-19T01:18:06;96620.44;;;11.68;100.00
7614;BME280;3848;42.016;23.098;2023-04-19T01:20:33;96617.84;;;11.71;100.00
7614;BME280;3848;42.016;23.098;2023-04-19T01:23:01;96613.66;;;11.68;100.00
7614;BME280;3848;42.016;23.098;2023-04-19T01:25:28;96613.63;;;11.70;100.00
7614;BME280;3848;42.016;23.098;2023-04-19T01:27:55;96611.88;;;11.72;100.00
7614;BME280;3848;42.016;23.098;2023-04-19T01:30:22;96612.72;;;11.72;100.00
7614;BME280;3848;42.016;23.098;2023-04-19T01:32:48;96605.09;;;11.71;100.00
7614;BME280;3848;42.016;23.098;2023-04-19T01:35:15;96606.69;;;11.76;100.00
7614;BME280;3848;42.016;23.098;2023-04-19T01:37:42;96610.03;;;11.80;100.00
7614;BME280;3848;42.016;23.098;2023-04-19T01:40:11;96613.38;;;11.82;100.00
7614;BME280;3848;42.016;23.098;2023-04-19T01:42:38;96616.72;;;11.84;100.00
7614;BME280;3848;42.016;23.098;2023-04-19T01:45:05;96607.34;;;11.86;100.00
7614;BME280;3848;42.016;23.098;2023-04-19T01:47:32;96614.13;;;11.87;100.00
7614;BME280;3848;42.016;23.098;2023-04-19T01:49:59;96612.50;;;11.83;100.00
7614;BME280;3848;42.016;23.098;2023-04-19T01:52:26;96615.06;;;11.81;100.00
7614;BME280;3848;42.016;23.098;2023-04-19T01:54:52;96618.47;;;11.82;100.00
7614;BME280;3848;42.016;23.098;2023-04-19T01:57:21;96584.06;;;11.63;100.00
7614;BME280;3848;42.016;23.098;2023-04-19T01:59:47;96613.47;;;11.76;100.00
7614;BME280;3848;42.016;23.098;2023-04-19T02:02:14;96477.81;;;10.93;100.00
7614;BME280;3848;42.016;23.098;2023-04-19T02:04:41;96618.53;;;11.79;100.00
7614;BME280;3848;42.016;23.098;2023-04-19T02:07:08;96605.09;;;11.71;100.00
7614;BME280;3848;42.016;23.098;2023-04-19T02:09:35;96611.72;;;11.78;100.00
7614;BME280;3848;42.016;23.098;2023-04-19T02:12:02;96605.97;;;11.70;100.00
7614;BME280;3848;42.016;23.098;2023-04-19T02:14:30;96618.59;;;11.74;100.00
7614;BME280;3848;42.016;23.098;2023-04-19T02:16:57;96619.59;;;11.66;100.00
7614;BME280;3848;42.016;23.098;2023-04-19T02:19:24;96613.84;;;11.57;100.00
7614;BME280;3848;42.016;23.098;2023-04-19T02:21:51;96613.06;;;11.55;100.00
7614;BME280;3848;42.016;23.098;2023-04-19T02:24:21;96618.13;;;11.55;100.00
7614;BME280;3848;42.016;23.098;2023-04-19T02:26:48;96612.16;;;11.58;100.00
7614;BME280;3848;42.016;23.098;2023-04-19T02:29:15;96618.88;;;11.60;100.00
7614;BME280;3848;42.016;23.098;2023-04-19T02:31:43;96609.56;;;11.59;100.00
7614;BME280;3848;42.016;23.098;2023-04-19T02:34:10;96558.56;;;11.25;100.00
7614;BME280;3848;42.016;23.098;2023-04-19T02:36:37;96591.22;;;11.45;100.00
7614;BME280;3848;42.016;23.098;2023-04-19T02:39:04;96608.03;;;11.52;100.00
7614;BME280;3848;42.016;23.098;2023-04-19T02:41:31;96607.97;;;11.55;100.00
7614;BME280;3848;42.016;23.098;2023-04-19T02:43:57;96601.34;;;11.48;100.00
7614;BME280;3848;42.016;23.098;2023-04-19T02:46:24;96606.41;;;11.48;100.00
7614;BME280;3848;42.016;23.098;2023-04-19T02:48:52;96604.72;;;11.49;100.00
7614;BME280;3848;42.016;23.098;2023-04-19T02:51:19;96612.41;;;11.46;100.00
7614;BME280;3848;42.016;23.098;2023-04-19T02:53:46;96609.03;;;11.44;100.00
7614;BME280;3848;42.016;23.098;2023-04-19T02:56:12;96613.25;;;11.45;100.00
7614;BME280;3848;42.016;23.098;2023-04-19T02:58:40;96613.28;;;11.43;100.00
7614;BME280;3848;42.016;23.098;2023-04-19T03:01:08;96607.41;;;11.40;100.00
7614;BME280;3848;42.016;23.098;2023-04-19T03:03:35;96604.97;;;11.35;100.00
7614;BME280;3848;42.016;23.098;2023-04-19T03:06:03;96599.19;;;11.28;100.00
7614;BME280;3848;42.016;23.098;2023-04-19T03:08:30;96587.50;;;11.18;100.00
7614;BME280;3848;42.016;23.098;2023-04-19T03:10:57;96595.16;;;11.17;100.00
7614;BME280;3848;42.016;23.098;2023-04-19T03:13:24;96601.88;;;11.19;100.00
7614;BME280;3848;42.016;23.098;2023-04-19T03:15:51;96604.47;;;11.18;100.00
7614;BME280;3848;42.016;23.098;2023-04-19T03:18:18;96603.72;;;11.13;100.00
7614;BME280;3848;42.016;23.098;2023-04-19T03:20:45;96598.75;;;11.07;100.00
7614;BME280;3848;42.016;23.098;2023-04-19T03:23:13;96607.25;;;11.06;100.00
7614;BME280;3848;42.016;23.098;2023-04-19T03:25:40;96598.81;;;11.04;100.00
7614;BME280;3848;42.016;23.098;2023-04-19T03:28:06;96600.53;;;11.00;100.00
7614;BME280;3848;42.016;23.098;2023-04-19T03:30:33;96602.22;;;11.01;100.00
7614;BME280;3848;42.016;23.098;2023-04-19T03:33:00;96602.28;;;10.98;100.00
7614;BME280;3848;42.016;23.098;2023-04-19T03:35:27;96616.06;;;10.86;100.00
7614;BME280;3848;42.016;23.098;2023-04-19T03:37:55;96605.97;;;10.83;100.00
7614;BME280;3848;42.016;23.098;2023-04-19T03:40:23;96602.63;;;10.78;100.00
7614;BME280;3848;42.016;23.098;2023-04-19T03:42:50;96612.75;;;10.81;100.00
7614;BME280;3848;42.016;23.098;2023-04-19T03:45:16;96612.81;;;10.77;100.00
7614;BME280;3848;42.016;23.098;2023-04-19T03:47:43;96608.56;;;10.79;100.00
7614;BME280;3848;42.016;23.098;2023-04-19T03:50:10;96570.94;;;10.51;100.00
7614;BME280;3848;42.016;23.098;2023-04-19T03:52:37;96609.53;;;10.72;100.00
7614;BME280;3848;42.016;23.098;2023-04-19T03:55:04;96617.19;;;10.70;100.00
7614;BME280;3848;42.016;23.098;2023-04-19T03:57:32;96598.81;;;10.54;100.00
7614;BME280;3848;42.016;23.098;2023-04-19T03:59:59;96618.19;;;10.60;100.00
7614;BME280;3848;42.016;23.098;2023-04-19T04:02:26;96611.41;;;10.62;100.00
7614;BME280;3848;42.016;23.098;2023-04-19T04:04:53;96615.63;;;10.63;100.00
7614;BME280;3848;42.016;23.098;2023-04-19T04:07:20;96615.63;;;10.61;100.00
7614;BME280;3848;42.016;23.098;2023-04-19T04:09:49;96615.66;;;10.60;100.00
7614;BME280;3848;42.016;23.098;2023-04-19T04:12:16;96622.41;;;10.62;100.00
7614;BME280;3848;42.016;23.098;2023-04-19T04:14:44;96614.78;;;10.61;100.00
7614;BME280;3848;42.016;23.098;2023-04-19T04:17:10;96610.53;;;10.63;100.00
7614;BME280;3848;42.016;23.098;2023-04-19T04:19:37;96616.50;;;10.62;100.00
7614;BME280;3848;42.016;23.098;2023-04-19T04:22:04;96619.34;;;10.41;100.00
7614;BME280;3848;42.016;23.098;2023-04-19T04:24:36;96622.19;;;10.18;100.00
7614;BME280;3848;42.016;23.098;2023-04-19T04:27:05;96617.19;;;10.15;100.00
7614;BME280;3848;42.016;23.098;2023-04-19T04:29:34;96624.88;;;10.10;100.00
7614;BME280;3848;42.016;23.098;2023-04-19T04:32:03;96617.19;;;10.13;100.00
7614;BME280;3848;42.016;23.098;2023-04-19T04:34:30;96616.66;;;9.93;100.00
7614;BME280;3848;42.016;23.098;2023-04-19T04:36:57;96614.84;;;10.02;100.00
7614;BME280;3848;42.016;23.098;2023-04-19T04:39:24;96622.28;;;10.13;100.00
7614;BME280;3848;42.016;23.098;2023-04-19T04:41:50;96620.59;;;10.12;100.00
7614;BME280;3848;42.016;23.098;2023-04-19T04:44:18;96618.28;;;9.97;100.00
7614;BME280;3848;42.016;23.098;2023-04-19T04:46:46;96629.94;;;10.10;100.00
7614;BME280;3848;42.016;23.098;2023-04-19T04:49:14;96622.16;;;10.24;100.00
7614;BME280;3848;42.016;23.098;2023-04-19T04:51:41;96630.63;;;10.24;100.00
7614;BME280;3848;42.016;23.098;2023-04-19T04:54:08;96620.34;;;10.32;100.00
7614;BME280;3848;42.016;23.098;2023-04-19T04:56:35;96621.06;;;10.38;100.00
7614;BME280;3848;42.016;23.098;2023-04-19T04:59:02;96622.72;;;10.43;100.00
7614;BME280;3848;42.016;23.098;2023-04-19T05:01:29;96626.06;;;10.45;100.00
7614;BME280;3848;42.016;23.098;2023-04-19T05:03:56;96616.81;;;10.41;100.00
7614;BME280;3848;42.016;23.098;2023-04-19T05:06:25;96616.78;;;10.44;100.00
7614;BME280;3848;42.016;23.098;2023-04-19T05:08:53;96621.56;;;10.60;100.00
7614;BME280;3848;42.016;23.098;2023-04-19T05:11:21;96626.88;;;10.47;100.00
7614;BME280;3848;42.016;23.098;2023-04-19T05:13:48;96627.63;;;10.53;100.00
7614;BME280;3848;42.016;23.098;2023-04-19T05:16:14;96626.09;;;10.43;100.00
7614;BME280;3848;42.016;23.098;2023-04-19T05:18:41;96618.41;;;10.48;100.00
7614;BME280;3848;42.016;23.098;2023-04-19T05:21:08;96627.47;;;10.64;100.00
7614;BME280;3848;42.016;23.098;2023-04-19T05:23:37;96633.97;;;10.79;100.00
7614;BME280;3848;42.016;23.098;2023-04-19T05:26:04;96633.88;;;10.85;100.00
7614;BME280;3848;42.016;23.098;2023-04-19T05:28:31;96634.69;;;10.87;100.00
7614;BME280;3848;42.016;23.098;2023-04-19T05:30:58;96636.34;;;10.89;100.00
7614;BME280;3848;42.016;23.098;2023-04-19T05:33:24;96634.56;;;10.94;100.00
7614;BME280;3848;42.016;23.098;2023-04-19T05:35:51;96631.50;;;10.74;100.00
7614;BME280;3848;42.016;23.098;2023-04-19T05:38:18;96624.69;;;10.76;100.00
7614;BME280;3848;42.016;23.098;2023-04-19T05:40:46;96631.50;;;10.74;100.00
7614;BME280;3848;42.016;23.098;2023-04-19T05:43:13;96572.09;;;10.32;100.00
7614;BME280;3848;42.016;23.098;2023-04-19T05:45:40;96632.44;;;10.70;100.00
7614;BME280;3848;42.016;23.098;2023-04-19T05:48:07;96631.50;;;10.74;100.00
7614;BME280;3848;42.016;23.098;2023-04-19T05:50:34;96634.09;;;10.71;100.00
7614;BME280;3848;42.016;23.098;2023-04-19T05:53:01;96629.69;;;10.81;100.00
7614;BME280;3848;42.016;23.098;2023-04-19T05:55:28;96633.00;;;10.87;100.00
7614;BME280;3848;42.016;23.098;2023-04-19T05:57:57;96633.56;;;11.02;100.00
7614;BME280;3848;42.016;23.098;2023-04-19T06:00:25;96623.28;;;11.09;100.00
7614;BME280;3848;42.016;23.098;2023-04-19T06:02:52;96620.53;;;11.20;100.00
7614;BME280;3848;42.016;23.098;2023-04-19T06:05:18;96620.28;;;11.34;100.00
7614;BME280;3848;42.016;23.098;2023-04-19T06:07:45;96624.00;;;11.16;100.00
7614;BME280;3848;42.016;23.098;2023-04-19T06:10:12;96554.13;;;10.90;100.00
7614;BME280;3848;42.016;23.098;2023-04-19T06:12:39;96620.84;;;11.48;100.00
7614;BME280;3848;42.016;23.098;2023-04-19T06:15:08;96623.63;;;11.36;100.00
7614;BME280;3848;42.016;23.098;2023-04-19T06:17:36;96544.13;;;10.83;100.00
7614;BME280;3848;42.016;23.098;2023-04-19T06:20:03;96623.53;;;11.40;100.00
7614;BME280;3848;42.016;23.098;2023-04-19T06:22:32;96625.03;;;11.50;100.00
7614;BME280;3848;42.016;23.098;2023-04-19T06:24:59;96622.41;;;11.53;100.00
7614;BME280;3848;42.016;23.098;2023-04-19T06:27:26;96597.06;;;11.49;100.00
7614;BME280;3848;42.016;23.098;2023-04-19T06:29:53;96615.28;;;11.71;100.00
7614;BME280;3848;42.016;23.098;2023-04-19T06:32:21;96615.97;;;11.79;100.00
7614;BME280;3848;42.016;23.098;2023-04-19T06:34:50;96603.22;;;11.80;100.00
7614;BME280;3848;42.016;23.098;2023-04-19T06:37:16;96610.97;;;11.74;100.00
7614;BME280;3848;42.016;23.098;2023-04-19T06:39:43;96555.31;;;11.57;100.00
7614;BME280;3848;42.016;23.098;2023-04-19T06:42:10;96620.53;;;12.03;100.00
7614;BME280;3848;42.016;23.098;2023-04-19T06:44:37;96623.63;;;12.17;100.00
7614;BME280;3848;42.016;23.098;2023-04-19T06:47:04;96617.44;;;12.28;100.00
7614;BME280;3848;42.016;23.098;2023-04-19T06:49:32;96605.25;;;12.40;100.00
7614;BME280;3848;42.016;23.098;2023-04-19T06:51:59;96614.19;;;12.58;100.00
7614;BME280;3848;42.016;23.098;2023-04-19T06:54:26;96617.84;;;12.82;100.00
7614;BME280;3848;42.016;23.098;2023-04-19T06:56:52;96605.44;;;13.01;100.00
7614;BME280;3848;42.016;23.098;2023-04-19T06:59:21;96607.59;;;13.16;100.00
7614;BME280;3848;42.016;23.098;2023-04-19T07:01:49;96612.31;;;13.31;100.00
7614;BME280;3848;42.016;23.098;2023-04-19T07:04:16;96607.75;;;13.42;100.00
7614;BME280;3848;42.016;23.098;2023-04-19T07:06:47;96606.53;;;13.56;100.00
7614;BME280;3848;42.016;23.098;2023-04-19T07:09:14;96613.84;;;13.68;100.00
7614;BME280;3848;42.016;23.098;2023-04-19T07:11:41;96614.94;;;13.59;100.00
7614;BME280;3848;42.016;23.098;2023-04-19T07:14:08;96611.28;;;13.68;100.00
7614;BME280;3848;42.016;23.098;2023-04-19T07:16:34;96613.75;;;13.71;100.00
7614;BME280;3848;42.016;23.098;2023-04-19T07:19:01;96605.25;;;13.70;100.00
7614;BME280;3848;42.016;23.098;2023-04-19T07:21:28;96611.28;;;13.68;100.00
7614;BME280;3848;42.016;23.098;2023-04-19T07:23:59;96608.31;;;13.54;100.00
7614;BME280;3848;42.016;23.098;2023-04-19T07:26:26;96605.75;;;13.54;100.00
7614;BME280;3848;42.016;23.098;2023-04-19T07:28:53;96606.66;;;13.51;100.00
7614;BME280;3848;42.016;23.098;2023-04-19T07:31:20;96603.34;;;13.48;100.00
7614;BME280;3848;42.016;23.098;2023-04-19T07:33:49;96607.63;;;13.47;100.00
7614;BME280;3848;42.016;23.098;2023-04-19T07:36:16;96600.94;;;13.43;100.00
7614;BME280;3848;42.016;23.098;2023-04-19T07:38:43;96593.41;;;13.38;100.00
7614;BME280;3848;42.016;23.098;2023-04-19T07:41:11;96595.44;;;13.57;100.00
7614;BME280;3848;42.016;23.098;2023-04-19T07:43:38;96598.16;;;13.51;100.00
7614;BME280;3848;42.016;23.098;2023-04-19T07:46:08;96601.22;;;13.63;100.00
7614;BME280;3848;42.016;23.098;2023-04-19T07:48:35;96598.25;;;13.48;100.00
7614;BME280;3848;42.016;23.098;2023-04-19T07:51:07;96606.09;;;13.71;100.00
7614;BME280;3848;42.016;23.098;2023-04-19T07:53:34;96599.22;;;13.73;100.00
7614;BME280;3848;42.016;23.098;2023-04-19T07:56:01;96595.13;;;13.67;100.00
7614;BME280;3848;42.016;23.098;2023-04-19T07:58:29;96598.31;;;13.76;100.00
7614;BME280;3848;42.016;23.098;2023-04-19T08:00:56;96589.84;;;13.73;100.00
7614;BME280;3848;42.016;23.098;2023-04-19T08:03:23;96599.66;;;13.87;100.00
7614;BME280;3848;42.016;23.098;2023-04-19T08:05:54;96607.91;;;13.97;100.00
7614;BME280;3848;42.016;23.098;2023-04-19T08:08:21;96598.66;;;13.91;100.00
7614;BME280;3848;42.016;23.098;2023-04-19T08:10:49;96602.78;;;13.97;100.00
7614;BME280;3848;42.016;23.098;2023-04-19T08:13:19;96604.84;;;14.12;100.00
7614;BME280;3848;42.016;23.098;2023-04-19T08:15:47;96596.25;;;14.15;100.00
7614;BME280;3848;42.016;23.098;2023-04-19T08:18:14;96601.47;;;14.40;100.00
7614;BME280;3848;42.016;23.098;2023-04-19T08:20:40;96587.91;;;14.64;100.00
7614;BME280;3848;42.016;23.098;2023-04-19T08:23:07;96588.53;;;14.71;100.00
7614;BME280;3848;42.016;23.098;2023-04-19T08:25:35;96591.19;;;14.68;100.00
7614;BME280;3848;42.016;23.098;2023-04-19T08:28:02;96587.97;;;14.62;100.00
7614;BME280;3848;42.016;23.098;2023-04-19T08:30:29;96585.41;;;14.62;100.00
7614;BME280;3848;42.016;23.098;2023-04-19T08:32:58;96581.97;;;14.63;100.00
7614;BME280;3848;42.016;23.098;2023-04-19T08:35:25;96572.09;;;14.78;100.00
7614;BME280;3848;42.016;23.098;2023-04-19T08:37:55;96564.84;;;14.90;100.00
7614;BME280;3848;42.016;23.098;2023-04-19T08:40:33;96555.50;;;14.89;100.00
7614;BME280;3848;42.016;23.098;2023-04-19T08:43:04;96560.28;;;14.99;100.00
7614;BME280;3848;42.016;23.098;2023-04-19T08:45:32;96561.44;;;15.38;100.00
7614;BME280;3848;42.016;23.098;2023-04-19T08:48:01;96558.63;;;15.69;100.00
7614;BME280;3848;42.016;23.098;2023-04-19T08:50:28;96542.69;;;15.84;100.00
7614;BME280;3848;42.016;23.098;2023-04-19T08:52:57;96535.59;;;16.13;100.00
7614;BME280;3848;42.016;23.098;2023-04-19T08:55:24;96543.50;;;16.29;100.00
7614;BME280;3848;42.016;23.098;2023-04-19T08:57:51;96535.00;;;16.49;100.00
7614;BME280;3848;42.016;23.098;2023-04-19T09:00:19;96536.78;;;16.89;100.00
7614;BME280;3848;42.016;23.098;2023-04-19T09:02:46;96517.19;;;17.25;100.00
7614;BME280;3848;42.016;23.098;2023-04-19T09:05:16;96527.13;;;17.52;100.00
7614;BME280;3848;42.016;23.098;2023-04-19T09:07:43;96529.13;;;17.45;94.46
7614;BME280;3848;42.016;23.098;2023-04-19T09:10:13;96528.13;;;17.49;98.61
7614;BME280;3848;42.016;23.098;2023-04-19T09:12:40;96521.66;;;17.78;92.92
7614;BME280;3848;42.016;23.098;2023-04-19T09:15:08;96509.88;;;18.27;92.26
7614;BME280;3848;42.016;23.098;2023-04-19T09:17:35;96508.44;;;18.39;84.77
7614;BME280;3848;42.016;23.098;2023-04-19T09:20:05;96510.56;;;18.83;74.92
7614;BME280;3848;42.016;23.098;2023-04-19T09:22:35;96503.06;;;18.96;67.72
7614;BME280;3848;42.016;23.098;2023-04-19T09:25:02;96501.28;;;18.80;68.92
7614;BME280;3848;42.016;23.098;2023-04-19T09:27:31;96508.16;;;18.80;77.73
7614;BME280;3848;42.016;23.098;2023-04-19T09:29:59;96492.38;;;19.03;69.71
7614;BME280;3848;42.016;23.098;2023-04-19T09:32:27;96436.75;;;18.83;63.66
7614;BME280;3848;42.016;23.098;2023-04-19T09:34:56;96483.91;;;19.82;66.87
7614;BME280;3848;42.016;23.098;2023-04-19T09:37:23;96492.13;;;20.18;57.05
7614;BME280;3848;42.016;23.098;2023-04-19T09:39:52;96488.41;;;20.54;56.73
7614;BME280;3848;42.016;23.098;2023-04-19T09:42:19;96383.34;;;19.82;51.18
7614;BME280;3848;42.016;23.098;2023-04-19T09:44:55;96483.38;;;20.95;54.69
7614;BME280;3848;42.016;23.098;2023-04-19T09:47:24;96488.53;;;21.23;50.13
7614;BME280;3848;42.016;23.098;2023-04-19T09:50:04;96483.94;;;21.43;56.49
7614;BME280;3848;42.016;23.098;2023-04-19T09:52:31;96462.06;;;21.20;50.10
7614;BME280;3848;42.016;23.098;2023-04-19T09:55:01;96348.00;;;20.85;52.14
7614;BME280;3848;42.016;23.098;2023-04-19T09:57:29;96464.59;;;21.63;54.81
7614;BME280;3848;42.016;23.098;2023-04-19T09:59:58;96460.19;;;22.18;50.99
7614;BME280;3848;42.016;23.098;2023-04-19T10:02:25;96430.41;;;22.51;49.61
7614;BME280;3848;42.016;23.098;2023-04-19T10:04:56;96452.06;;;22.75;48.10
7614;BME280;3848;42.016;23.098;2023-04-19T10:07:24;96459.84;;;22.75;49.93
7614;BME280;3848;42.016;23.098;2023-04-19T10:09:54;96473.56;;;21.71;52.57
7614;BME280;3848;42.016;23.098;2023-04-19T10:12:23;96471.41;;;22.05;54.18
7614;BME280;3848;42.016;23.098;2023-04-19T10:14:52;96470.22;;;22.23;53.14
7614;BME280;3848;42.016;23.098;2023-04-19T10:17:20;96476.22;;;21.97;52.85
7614;BME280;3848;42.016;23.098;2023-04-19T10:19:50;96463.44;;;21.81;53.70
7614;BME280;3848;42.016;23.098;2023-04-19T10:22:18;96467.28;;;21.61;52.86
7614;BME280;3848;42.016;23.098;2023-04-19T10:25:09;96461.25;;;20.91;55.16
7614;BME280;3848;42.016;23.098;2023-04-19T10:27:39;96447.88;;;20.70;55.35
7614;BME280;3848;42.016;23.098;2023-04-19T10:30:16;96465.81;;;20.57;56.21
7614;BME280;3848;42.016;23.098;2023-04-19T10:32:44;96461.47;;;20.58;54.02
7614;BME280;3848;42.016;23.098;2023-04-19T10:35:17;96462.22;;;20.30;54.47
7614;BME280;3848;42.016;23.098;2023-04-19T10:38:02;96457.22;;;19.97;55.03
7614;BME280;3848;42.016;23.098;2023-04-19T10:40:57;96460.69;;;19.82;57.23
7614;BME280;3848;42.016;23.098;2023-04-19T10:43:28;96447.28;;;20.21;59.50
7614;BME280;3848;42.016;23.098;2023-04-19T10:45:58;96442.72;;;20.10;53.77
7614;BME280;3848;42.016;23.098;2023-04-19T10:48:49;96444.97;;;20.60;56.63
7614;BME280;3848;42.016;23.098;2023-04-19T10:51:20;96446.50;;;20.93;57.11
7614;BME280;3848;42.016;23.098;2023-04-19T10:53:52;96443.03;;;21.21;56.56
7614;BME280;3848;42.016;23.098;2023-04-19T10:56:21;96439.19;;;21.69;55.32
7614;BME280;3848;42.016;23.098;2023-04-19T10:59:15;96420.47;;;22.32;51.68
7614;BME280;3848;42.016;23.098;2023-04-19T11:01:50;96429.66;;;22.36;54.23
7614;BME280;3848;42.016;23.098;2023-04-19T11:04:18;96429.69;;;22.62;55.95
7614;BME280;3848;42.016;23.098;2023-04-19T11:06:59;96432.06;;;22.90;53.58
7614;BME280;3848;42.016;23.098;2023-04-19T11:09:28;96436.81;;;23.22;49.98
7614;BME280;3848;42.016;23.098;2023-04-19T11:12:01;96445.78;;;23.41;50.19
7614;BME280;3848;42.016;23.098;2023-04-19T11:14:32;96439.69;;;23.30;50.50
7614;BME280;3848;42.016;23.098;2023-04-19T11:17:01;96440.16;;;22.73;48.76
7614;BME280;3848;42.016;23.098;2023-04-19T11:19:28;96435.19;;;22.70;50.94
7614;BME280;3848;42.016;23.098;2023-04-19T11:21:57;96448.03;;;23.09;49.99
7614;BME280;3848;42.016;23.098;2023-04-19T11:24:24;96444.22;;;23.02;49.82
7614;BME280;3848;42.016;23.098;2023-04-19T11:26:51;96441.44;;;23.42;49.45
7614;BME280;3848;42.016;23.098;2023-04-19T11:29:18;96460.03;;;23.23;49.14
7614;BME280;3848;42.016;23.098;2023-04-19T11:31:49;96463.75;;;23.32;48.94
7614;BME280;3848;42.016;23.098;2023-04-19T11:34:15;96459.50;;;23.31;50.00
7614;BME280;3848;42.016;23.098;2023-04-19T11:36:50;96453.31;;;23.21;48.16
7614;BME280;3848;42.016;23.098;2023-04-19T11:39:17;96473.00;;;22.60;48.39
7614;BME280;3848;42.016;23.098;2023-04-19T11:41:46;96482.28;;;22.37;48.05
7614;BME280;3848;42.016;23.098;2023-04-19T11:44:13;96490.06;;;21.27;50.15
7614;BME280;3848;42.016;23.098;2023-04-19T11:46:40;96496.13;;;20.84;52.40
7614;BME280;3848;42.016;23.098;2023-04-19T11:49:09;96499.94;;;19.87;55.48
7614;BME280;3848;42.016;23.098;2023-04-19T11:51:40;96489.13;;;19.15;57.32
7614;BME280;3848;42.016;23.098;2023-04-19T11:54:12;96498.06;;;19.26;59.38
7614;BME280;3848;42.016;23.098;2023-04-19T11:56:56;96513.47;;;18.77;61.38
7614;BME280;3848;42.016;23.098;2023-04-19T11:59:23;96509.94;;;18.26;62.88
7614;BME280;3848;42.016;23.098;2023-04-19T12:01:50;96508.56;;;17.64;68.15
7614;BME280;3848;42.016;23.098;2023-04-19T12:04:18;96501.38;;;17.16;74.71
7614;BME280;3848;42.016;23.098;2023-04-19T12:06:55;96502.88;;;17.01;80.54
7614;BME280;3848;42.016;23.098;2023-04-19T12:09:22;96488.84;;;16.89;79.23
7614;BME280;3848;42.016;23.098;2023-04-19T12:11:48;96501.53;;;16.92;83.49
7614;BME280;3848;42.016;23.098;2023-04-19T12:14:16;96500.88;;;17.08;86.86
7614;BME280;3848;42.016;23.098;2023-04-19T12:16:44;96497.81;;;17.18;82.58
7614;BME280;3848;42.016;23.098;2023-04-19T12:19:12;96506.69;;;17.49;75.76
7614;BME280;3848;42.016;23.098;2023-04-19T12:21:43;96514.31;;;17.71;77.43
7614;BME280;3848;42.016;23.098;2023-04-19T12:24:10;96504.13;;;17.86;80.24
7614;BME280;3848;42.016;23.098;2023-04-19T12:26:51;96520.97;;;18.11;79.44
7614;BME280;3848;42.016;23.098;2023-04-19T12:29:18;96516.53;;;18.32;85.43
7614;BME280;3848;42.016;23.098;2023-04-19T12:31:45;96520.25;;;18.43;89.10
7614;BME280;3848;42.016;23.098;2023-04-19T12:34:12;96519.88;;;18.34;88.46
7614;BME280;3848;42.016;23.098;2023-04-19T12:36:38;96519.38;;;18.08;88.43
7614;BME280;3848;42.016;23.098;2023-04-19T12:39:07;96513.03;;;17.98;100.00
7614;BME280;3848;42.016;23.098;2023-04-19T12:41:34;96520.38;;;17.87;100.00
7614;BME280;3848;42.016;23.098;2023-04-19T12:44:00;96504.72;;;17.74;100.00
7614;BME280;3848;42.016;23.098;2023-04-19T12:46:27;96501.47;;;17.71;100.00
7614;BME280;3848;42.016;23.098;2023-04-19T12:48:54;96504.28;;;17.64;100.00
7614;BME280;3848;42.016;23.098;2023-04-19T12:51:21;96497.91;;;17.73;100.00
7614;BME280;3848;42.016;23.098;2023-04-19T12:53:48;96503.91;;;17.74;100.00
7614;BME280;3848;42.016;23.098;2023-04-19T12:56:17;96506.38;;;17.56;100.00
7614;BME280;3848;42.016;23.098;2023-04-19T12:58:44;96503.59;;;17.42;100.00
7614;BME280;3848;42.016;23.098;2023-04-19T13:01:11;96499.97;;;17.46;100.00
7614;BME280;3848;42.016;23.098;2023-04-19T13:03:37;96498.66;;;17.56;100.00
7614;BME280;3848;42.016;23.098;2023-04-19T13:06:05;96496.25;;;17.53;100.00
7614;BME280;3848;42.016;23.098;2023-04-19T13:08:32;96492.63;;;17.57;100.00